sensor_id;sensor_type;location;lat;lon;timestamp;P1;durP1;ratioP1;P2;durP2;ratioP2
36377;SDS011;22402;42.746;23.606;2023-08-01T00:01:30;5.20;;;4.70;;
36377;SDS011;22402;42.746;23.606;2023-08-01T00:03:55;4.63;;;4.23;;
36377;SDS011;22402;42.746;23.606;2023-08-01T00:06:21;5.07;;;4.57;;
36377;SDS011;22402;42.746;23.606;2023-08-01T00:08:47;6.10;;;4.47;;
36377;SDS011;22402;42.746;23.606;2023-08-01T00:11:13;4.87;;;4.37;;
36377;SDS011;22402;42.746;23.606;2023-08-01T00:13:39;6.90;;;5.53;;
36377;SDS011;22402;42.746;23.606;2023-08-01T00:16:05;4.87;;;4.47;;
36377;SDS011;22402;42.746;23.606;2023-08-01T00:18:31;5.97;;;4.73;;
36377;SDS011;22402;42.746;23.606;2023-08-01T00:20:57;5.40;;;4.90;;
36377;SDS011;22402;42.746;23.606;2023-08-01T00:23:23;7.03;;;5.07;;
36377;SDS011;22402;42.746;23.606;2023-08-01T00:25:49;5.80;;;4.40;;
36377;SDS011;22402;42.746;23.606;2023-08-01T00:28:17;5.40;;;4.90;;
36377;SDS011;22402;42.746;23.606;2023-08-01T00:30:43;4.87;;;4.47;;
36377;SDS011;22402;42.746;23.606;2023-08-01T00:33:09;4.83;;;4.43;;
36377;SDS011;22402;42.746;23.606;2023-08-01T00:35:34;5.10;;;4.60;;
36377;SDS011;22402;42.746;23.606;2023-08-01T00:37:59;5.33;;;4.83;;
36377;SDS011;22402;42.746;23.606;2023-08-01T00:40:29;4.93;;;4.43;;
36377;SDS011;22402;42.746;23.606;2023-08-01T00:42:59;5.17;;;4.67;;
36377;SDS011;22402;42.746;23.606;2023-08-01T00:45:26;5.20;;;4.70;;
36377;SDS011;22402;42.746;23.606;2023-08-01T00:47:52;4.73;;;4.10;;
36377;SDS011;22402;42.746;23.606;2023-08-01T00:50:19;6.03;;;4.63;;
36377;SDS011;22402;42.746;23.606;2023-08-01T00:52:45;4.63;;;4.23;;
36377;SDS011;22402;42.746;23.606;2023-08-01T00:55:12;5.00;;;4.60;;
36377;SDS011;22402;42.746;23.606;2023-08-01T00:57:39;4.27;;;3.97;;
36377;SDS011;22402;42.746;23.606;2023-08-01T01:00:05;5.40;;;4.90;;
36377;SDS011;22402;42.746;23.606;2023-08-01T01:02:31;4.40;;;4.00;;
36377;SDS011;22402;42.746;23.606;2023-08-01T01:04:56;7.80;;;4.27;;
36377;SDS011;22402;42.746;23.606;2023-08-01T01:07:22;4.97;;;4.47;;
36377;SDS011;22402;42.746;23.606;2023-08-01T01:09:49;4.23;;;3.93;;
36377;SDS011;22402;42.746;23.606;2023-08-01T01:12:15;5.63;;;4.30;;
36377;SDS011;22402;42.746;23.606;2023-08-01T01:14:41;5.60;;;3.87;;
36377;SDS011;22402;42.746;23.606;2023-08-01T01:17:06;4.60;;;4.20;;
36377;SDS011;22402;42.746;23.606;2023-08-01T01:19:32;4.30;;;3.90;;
36377;SDS011;22402;42.746;23.606;2023-08-01T01:21:57;4.33;;;3.93;;
36377;SDS011;22402;42.746;23.606;2023-08-01T01:24:23;4.60;;;3.93;;
36377;SDS011;22402;42.746;23.606;2023-08-01T01:26:51;4.10;;;3.60;;
36377;SDS011;22402;42.746;23.606;2023-08-01T01:29:18;3.83;;;3.50;;
36377;SDS011;22402;42.746;23.606;2023-08-01T01:31:45;4.93;;;4.37;;
36377;SDS011;22402;42.746;23.606;2023-08-01T01:34:11;4.10;;;3.80;;
36377;SDS011;22402;42.746;23.606;2023-08-01T01:36:36;4.17;;;3.77;;
36377;SDS011;22402;42.746;23.606;2023-08-01T01:39:02;4.83;;;4.00;;
36377;SDS011;22402;42.746;23.606;2023-08-01T01:41:27;3.80;;;3.50;;
36377;SDS011;22402;42.746;23.606;2023-08-01T01:43:53;4.70;;;4.30;;
36377;SDS011;22402;42.746;23.606;2023-08-01T01:46:18;4.93;;;4.37;;
36377;SDS011;22402;42.746;23.606;2023-08-01T01:48:44;4.57;;;4.27;;
36377;SDS011;22402;42.746;23.606;2023-08-01T01:51:09;5.63;;;4.33;;
36377;SDS011;22402;42.746;23.606;2023-08-01T01:53:35;4.30;;;3.90;;
36377;SDS011;22402;42.746;23.606;2023-08-01T01:56:01;6.27;;;4.00;;
36377;SDS011;22402;42.746;23.606;2023-08-01T01:58:26;4.43;;;3.87;;
36377;SDS011;22402;42.746;23.606;2023-08-01T02:00:52;8.90;;;4.07;;
36377;SDS011;22402;42.746;23.606;2023-08-01T02:03:17;3.93;;;3.63;;
36377;SDS011;22402;42.746;23.606;2023-08-01T02:05:42;4.73;;;4.30;;
36377;SDS011;22402;42.746;23.606;2023-08-01T02:08:09;4.43;;;4.00;;
36377;SDS011;22402;42.746;23.606;2023-08-01T02:10:35;4.00;;;3.70;;
36377;SDS011;22402;42.746;23.606;2023-08-01T02:13:00;4.50;;;4.07;;
36377;SDS011;22402;42.746;23.606;2023-08-01T02:15:26;4.67;;;4.10;;
36377;SDS011;22402;42.746;23.606;2023-08-01T02:17:51;4.97;;;4.27;;
36377;SDS011;22402;42.746;23.606;2023-08-01T02:20:16;4.40;;;3.60;;
36377;SDS011;22402;42.746;23.606;2023-08-01T02:22:42;4.03;;;3.73;;
36377;SDS011;22402;42.746;23.606;2023-08-01T02:25:07;4.73;;;4.33;;
36377;SDS011;22402;42.746;23.606;2023-08-01T02:27:33;6.10;;;4.57;;
36377;SDS011;22402;42.746;23.606;2023-08-01T02:29:58;8.73;;;3.93;;
36377;SDS011;22402;42.746;23.606;2023-08-01T02:32:24;5.80;;;4.80;;
36377;SDS011;22402;42.746;23.606;2023-08-01T02:34:49;6.47;;;3.87;;
36377;SDS011;22402;42.746;23.606;2023-08-01T02:37:15;4.23;;;3.70;;
36377;SDS011;22402;42.746;23.606;2023-08-01T02:39:40;5.20;;;3.70;;
36377;SDS011;22402;42.746;23.606;2023-08-01T02:42:06;5.17;;;4.77;;
36377;SDS011;22402;42.746;23.606;2023-08-01T02:44:31;4.90;;;4.43;;
36377;SDS011;22402;42.746;23.606;2023-08-01T02:46:57;8.37;;;3.90;;
36377;SDS011;22402;42.746;23.606;2023-08-01T02:49:25;6.00;;;4.07;;
36377;SDS011;22402;42.746;23.606;2023-08-01T02:51:50;4.43;;;4.03;;
36377;SDS011;22402;42.746;23.606;2023-08-01T02:54:16;3.60;;;3.30;;
36377;SDS011;22402;42.746;23.606;2023-08-01T02:56:41;4.97;;;4.47;;
36377;SDS011;22402;42.746;23.606;2023-08-01T02:59:07;5.00;;;4.07;;
36377;SDS011;22402;42.746;23.606;2023-08-01T03:01:34;4.20;;;3.87;;
36377;SDS011;22402;42.746;23.606;2023-08-01T03:04:01;4.20;;;3.67;;
36377;SDS011;22402;42.746;23.606;2023-08-01T03:06:27;4.83;;;4.40;;
36377;SDS011;22402;42.746;23.606;2023-08-01T03:08:53;4.27;;;3.73;;
36377;SDS011;22402;42.746;23.606;2023-08-01T03:11:18;4.30;;;3.90;;
36377;SDS011;22402;42.746;23.606;2023-08-01T03:13:44;4.67;;;4.27;;
36377;SDS011;22402;42.746;23.606;2023-08-01T03:16:09;5.97;;;4.33;;
36377;SDS011;22402;42.746;23.606;2023-08-01T03:18:35;4.50;;;4.10;;
36377;SDS011;22402;42.746;23.606;2023-08-01T03:21:00;4.97;;;4.47;;
36377;SDS011;22402;42.746;23.606;2023-08-01T03:23:29;3.93;;;3.63;;
36377;SDS011;22402;42.746;23.606;2023-08-01T03:25:55;5.53;;;4.07;;
36377;SDS011;22402;42.746;23.606;2023-08-01T03:28:20;4.70;;;4.30;;
36377;SDS011;22402;42.746;23.606;2023-08-01T03:30:46;4.60;;;4.17;;
36377;SDS011;22402;42.746;23.606;2023-08-01T03:33:14;4.20;;;3.80;;
36377;SDS011;22402;42.746;23.606;2023-08-01T03:35:40;5.03;;;4.63;;
36377;SDS011;22402;42.746;23.606;2023-08-01T03:38:06;5.17;;;4.40;;
36377;SDS011;22402;42.746;23.606;2023-08-01T03:40:32;4.50;;;4.10;;
36377;SDS011;22402;42.746;23.606;2023-08-01T03:42:59;5.53;;;4.10;;
36377;SDS011;22402;42.746;23.606;2023-08-01T03:45:24;5.53;;;4.30;;
36377;SDS011;22402;42.746;23.606;2023-08-01T03:47:50;4.63;;;4.23;;
36377;SDS011;22402;42.746;23.606;2023-08-01T03:50:15;5.20;;;4.77;;
36377;SDS011;22402;42.746;23.606;2023-08-01T03:52:41;8.83;;;4.43;;
36377;SDS011;22402;42.746;23.606;2023-08-01T03:55:07;4.73;;;4.33;;
36377;SDS011;22402;42.746;23.606;2023-08-01T03:57:32;4.67;;;4.03;;
36377;SDS011;22402;42.746;23.606;2023-08-01T03:59:59;4.60;;;4.13;;
36377;SDS011;22402;42.746;23.606;2023-08-01T04:02:25;4.27;;;3.87;;
36377;SDS011;22402;42.746;23.606;2023-08-01T04:04:51;5.03;;;4.23;;
36377;SDS011;22402;42.746;23.606;2023-08-01T04:07:16;7.10;;;4.47;;
36377;SDS011;22402;42.746;23.606;2023-08-01T04:09:42;5.23;;;4.73;;
36377;SDS011;22402;42.746;23.606;2023-08-01T04:12:07;9.50;;;4.40;;
36377;SDS011;22402;42.746;23.606;2023-08-01T04:14:33;4.17;;;3.87;;
36377;SDS011;22402;42.746;23.606;2023-08-01T04:16:59;4.40;;;4.00;;
36377;SDS011;22402;42.746;23.606;2023-08-01T04:19:24;5.33;;;4.20;;
36377;SDS011;22402;42.746;23.606;2023-08-01T04:21:50;5.93;;;4.07;;
36377;SDS011;22402;42.746;23.606;2023-08-01T04:24:15;4.40;;;4.00;;
36377;SDS011;22402;42.746;23.606;2023-08-01T04:26:41;4.30;;;3.90;;
36377;SDS011;22402;42.746;23.606;2023-08-01T04:29:06;4.57;;;4.17;;
36377;SDS011;22402;42.746;23.606;2023-08-01T04:31:32;4.20;;;3.80;;
36377;SDS011;22402;42.746;23.606;2023-08-01T04:33:58;9.87;;;4.20;;
36377;SDS011;22402;42.746;23.606;2023-08-01T04:36:23;4.43;;;4.00;;
36377;SDS011;22402;42.746;23.606;2023-08-01T04:38:49;4.53;;;4.10;;
36377;SDS011;22402;42.746;23.606;2023-08-01T04:41:14;6.33;;;4.40;;
36377;SDS011;22402;42.746;23.606;2023-08-01T04:43:40;4.47;;;4.07;;
36377;SDS011;22402;42.746;23.606;2023-08-01T04:46:06;4.50;;;4.10;;
36377;SDS011;22402;42.746;23.606;2023-08-01T04:48:31;4.83;;;4.37;;
36377;SDS011;22402;42.746;23.606;2023-08-01T04:50:57;4.73;;;4.33;;
36377;SDS011;22402;42.746;23.606;2023-08-01T04:53:22;6.50;;;4.60;;
36377;SDS011;22402;42.746;23.606;2023-08-01T04:55:48;5.47;;;4.50;;
36377;SDS011;22402;42.746;23.606;2023-08-01T04:58:13;5.73;;;4.70;;
36377;SDS011;22402;42.746;23.606;2023-08-01T05:00:41;9.10;;;4.50;;
36377;SDS011;22402;42.746;23.606;2023-08-01T05:03:07;5.60;;;4.10;;
36377;SDS011;22402;42.746;23.606;2023-08-01T05:05:33;7.23;;;3.90;;
36377;SDS011;22402;42.746;23.606;2023-08-01T05:07:58;5.10;;;4.20;;
36377;SDS011;22402;42.746;23.606;2023-08-01T05:10:24;4.90;;;4.13;;
36377;SDS011;22402;42.746;23.606;2023-08-01T05:12:49;4.10;;;3.73;;
36377;SDS011;22402;42.746;23.606;2023-08-01T05:15:15;4.23;;;3.70;;
36377;SDS011;22402;42.746;23.606;2023-08-01T05:17:40;4.30;;;3.90;;
36377;SDS011;22402;42.746;23.606;2023-08-01T05:20:06;4.23;;;3.83;;
36377;SDS011;22402;42.746;23.606;2023-08-01T05:22:31;3.83;;;3.53;;
36377;SDS011;22402;42.746;23.606;2023-08-01T05:24:58;5.97;;;4.50;;
36377;SDS011;22402;42.746;23.606;2023-08-01T05:27:23;4.80;;;4.40;;
36377;SDS011;22402;42.746;23.606;2023-08-01T05:29:49;4.63;;;4.23;;
36377;SDS011;22402;42.746;23.606;2023-08-01T05:32:14;5.20;;;4.70;;
36377;SDS011;22402;42.746;23.606;2023-08-01T05:34:40;5.50;;;3.70;;
36377;SDS011;22402;42.746;23.606;2023-08-01T05:37:05;4.87;;;4.30;;
36377;SDS011;22402;42.746;23.606;2023-08-01T05:39:31;4.83;;;4.20;;
36377;SDS011;22402;42.746;23.606;2023-08-01T05:41:56;5.20;;;3.90;;
36377;SDS011;22402;42.746;23.606;2023-08-01T05:44:22;7.47;;;4.23;;
36377;SDS011;22402;42.746;23.606;2023-08-01T05:46:47;5.10;;;4.30;;
36377;SDS011;22402;42.746;23.606;2023-08-01T05:49:13;4.53;;;3.30;;
36377;SDS011;22402;42.746;23.606;2023-08-01T05:51:38;4.50;;;3.77;;
36377;SDS011;22402;42.746;23.606;2023-08-01T05:54:04;6.00;;;3.53;;
36377;SDS011;22402;42.746;23.606;2023-08-01T05:56:29;4.23;;;3.80;;
36377;SDS011;22402;42.746;23.606;2023-08-01T05:58:55;6.00;;;3.70;;
36377;SDS011;22402;42.746;23.606;2023-08-01T06:01:20;5.43;;;4.10;;
36377;SDS011;22402;42.746;23.606;2023-08-01T06:03:46;3.30;;;3.00;;
36377;SDS011;22402;42.746;23.606;2023-08-01T06:06:12;4.30;;;3.40;;
36377;SDS011;22402;42.746;23.606;2023-08-01T06:08:38;5.27;;;3.47;;
36377;SDS011;22402;42.746;23.606;2023-08-01T06:11:03;3.20;;;2.90;;
36377;SDS011;22402;42.746;23.606;2023-08-01T06:13:29;3.47;;;2.90;;
36377;SDS011;22402;42.746;23.606;2023-08-01T06:15:55;2.77;;;2.57;;
36377;SDS011;22402;42.746;23.606;2023-08-01T06:18:20;3.97;;;2.73;;
36377;SDS011;22402;42.746;23.606;2023-08-01T06:20:46;3.33;;;2.80;;
36377;SDS011;22402;42.746;23.606;2023-08-01T06:23:12;3.90;;;3.60;;
36377;SDS011;22402;42.746;23.606;2023-08-01T06:25:37;3.63;;;3.30;;
36377;SDS011;22402;42.746;23.606;2023-08-01T06:28:03;7.80;;;3.07;;
36377;SDS011;22402;42.746;23.606;2023-08-01T06:30:28;4.20;;;3.07;;
36377;SDS011;22402;42.746;23.606;2023-08-01T06:32:54;3.40;;;3.10;;
36377;SDS011;22402;42.746;23.606;2023-08-01T06:35:19;3.80;;;3.40;;
36377;SDS011;22402;42.746;23.606;2023-08-01T06:37:46;4.20;;;3.17;;
36377;SDS011;22402;42.746;23.606;2023-08-01T06:40:11;4.53;;;3.23;;
36377;SDS011;22402;42.746;23.606;2023-08-01T06:42:37;5.03;;;3.33;;
36377;SDS011;22402;42.746;23.606;2023-08-01T06:45:02;6.97;;;3.70;;
36377;SDS011;22402;42.746;23.606;2023-08-01T06:47:28;3.20;;;2.70;;
36377;SDS011;22402;42.746;23.606;2023-08-01T06:49:53;10.63;;;4.23;;
36377;SDS011;22402;42.746;23.606;2023-08-01T06:52:19;8.53;;;4.03;;
36377;SDS011;22402;42.746;23.606;2023-08-01T06:54:44;6.63;;;4.30;;
36377;SDS011;22402;42.746;23.606;2023-08-01T06:57:10;6.30;;;4.70;;
36377;SDS011;22402;42.746;23.606;2023-08-01T06:59:35;6.10;;;4.30;;
36377;SDS011;22402;42.746;23.606;2023-08-01T07:02:01;6.50;;;3.97;;
36377;SDS011;22402;42.746;23.606;2023-08-01T07:04:26;3.87;;;3.10;;
36377;SDS011;22402;42.746;23.606;2023-08-01T07:06:52;5.93;;;3.33;;
36377;SDS011;22402;42.746;23.606;2023-08-01T07:09:17;6.73;;;2.53;;
36377;SDS011;22402;42.746;23.606;2023-08-01T07:11:43;4.43;;;3.00;;
36377;SDS011;22402;42.746;23.606;2023-08-01T07:14:08;3.43;;;2.43;;
36377;SDS011;22402;42.746;23.606;2023-08-01T07:16:34;4.23;;;2.63;;
36377;SDS011;22402;42.746;23.606;2023-08-01T07:19:00;4.73;;;2.60;;
36377;SDS011;22402;42.746;23.606;2023-08-01T07:21:26;2.90;;;1.60;;
36377;SDS011;22402;42.746;23.606;2023-08-01T07:23:52;4.00;;;2.27;;
36377;SDS011;22402;42.746;23.606;2023-08-01T07:26:17;2.27;;;1.97;;
36377;SDS011;22402;42.746;23.606;2023-08-01T07:28:43;2.30;;;2.10;;
36377;SDS011;22402;42.746;23.606;2023-08-01T07:31:08;1.83;;;1.63;;
36377;SDS011;22402;42.746;23.606;2023-08-01T07:33:34;2.50;;;2.17;;
36377;SDS011;22402;42.746;23.606;2023-08-01T07:35:59;2.43;;;2.00;;
36377;SDS011;22402;42.746;23.606;2023-08-01T07:38:25;2.40;;;2.13;;
36377;SDS011;22402;42.746;23.606;2023-08-01T07:40:54;2.63;;;2.20;;
36377;SDS011;22402;42.746;23.606;2023-08-01T07:43:21;3.93;;;1.93;;
36377;SDS011;22402;42.746;23.606;2023-08-01T07:45:46;2.80;;;2.33;;
36377;SDS011;22402;42.746;23.606;2023-08-01T07:48:15;2.10;;;1.90;;
36377;SDS011;22402;42.746;23.606;2023-08-01T07:50:41;2.53;;;2.00;;
36377;SDS011;22402;42.746;23.606;2023-08-01T07:53:06;3.37;;;2.20;;
36377;SDS011;22402;42.746;23.606;2023-08-01T07:55:35;3.70;;;2.00;;
36377;SDS011;22402;42.746;23.606;2023-08-01T07:58:01;4.03;;;2.67;;
36377;SDS011;22402;42.746;23.606;2023-08-01T08:00:26;3.40;;;2.10;;
36377;SDS011;22402;42.746;23.606;2023-08-01T08:02:52;3.17;;;1.90;;
36377;SDS011;22402;42.746;23.606;2023-08-01T08:05:18;5.37;;;2.43;;
36377;SDS011;22402;42.746;23.606;2023-08-01T08:07:43;2.40;;;2.03;;
36377;SDS011;22402;42.746;23.606;2023-08-01T08:10:09;4.73;;;2.20;;
36377;SDS011;22402;42.746;23.606;2023-08-01T08:12:35;2.20;;;1.67;;
36377;SDS011;22402;42.746;23.606;2023-08-01T08:15:00;2.60;;;1.80;;
36377;SDS011;22402;42.746;23.606;2023-08-01T08:17:26;2.10;;;1.77;;
36377;SDS011;22402;42.746;23.606;2023-08-01T08:19:51;2.37;;;2.10;;
36377;SDS011;22402;42.746;23.606;2023-08-01T08:22:17;2.03;;;1.73;;
36377;SDS011;22402;42.746;23.606;2023-08-01T08:24:42;2.03;;;1.50;;
36377;SDS011;22402;42.746;23.606;2023-08-01T08:27:07;2.03;;;1.50;;
36377;SDS011;22402;42.746;23.606;2023-08-01T08:29:33;2.20;;;1.83;;
36377;SDS011;22402;42.746;23.606;2023-08-01T08:31:58;2.60;;;1.90;;
36377;SDS011;22402;42.746;23.606;2023-08-01T08:34:24;7.00;;;1.80;;
36377;SDS011;22402;42.746;23.606;2023-08-01T08:36:50;5.00;;;1.73;;
36377;SDS011;22402;42.746;23.606;2023-08-01T08:39:18;1.27;;;1.17;;
36377;SDS011;22402;42.746;23.606;2023-08-01T08:41:47;4.70;;;1.53;;
36377;SDS011;22402;42.746;23.606;2023-08-01T08:44:15;1.63;;;1.47;;
36377;SDS011;22402;42.746;23.606;2023-08-01T08:47:18;2.27;;;1.33;;
36377;SDS011;22402;42.746;23.606;2023-08-01T08:49:47;3.70;;;1.63;;
36377;SDS011;22402;42.746;23.606;2023-08-01T08:52:13;4.80;;;1.60;;
36377;SDS011;22402;42.746;23.606;2023-08-01T08:54:39;2.90;;;1.73;;
36377;SDS011;22402;42.746;23.606;2023-08-01T08:57:05;1.73;;;1.30;;
36377;SDS011;22402;42.746;23.606;2023-08-01T08:59:31;1.83;;;1.67;;
36377;SDS011;22402;42.746;23.606;2023-08-01T09:01:58;1.50;;;1.40;;
36377;SDS011;22402;42.746;23.606;2023-08-01T09:04:26;4.10;;;1.53;;
36377;SDS011;22402;42.746;23.606;2023-08-01T09:06:54;3.43;;;1.47;;
36377;SDS011;22402;42.746;23.606;2023-08-01T09:09:23;5.30;;;1.87;;
36377;SDS011;22402;42.746;23.606;2023-08-01T09:11:51;1.30;;;1.20;;
36377;SDS011;22402;42.746;23.606;2023-08-01T09:14:18;3.03;;;1.30;;
36377;SDS011;22402;42.746;23.606;2023-08-01T09:16:44;2.20;;;1.57;;
36377;SDS011;22402;42.746;23.606;2023-08-01T09:19:15;2.20;;;1.23;;
36377;SDS011;22402;42.746;23.606;2023-08-01T09:21:42;2.00;;;1.20;;
36377;SDS011;22402;42.746;23.606;2023-08-01T09:24:08;1.73;;;1.43;;
36377;SDS011;22402;42.746;23.606;2023-08-01T09:26:35;1.87;;;1.47;;
36377;SDS011;22402;42.746;23.606;2023-08-01T09:29:01;2.47;;;1.43;;
36377;SDS011;22402;42.746;23.606;2023-08-01T09:31:30;1.97;;;1.77;;
36377;SDS011;22402;42.746;23.606;2023-08-01T09:33:57;1.63;;;1.40;;
36377;SDS011;22402;42.746;23.606;2023-08-01T09:36:23;1.70;;;1.60;;
36377;SDS011;22402;42.746;23.606;2023-08-01T09:38:50;1.50;;;1.40;;
36377;SDS011;22402;42.746;23.606;2023-08-01T09:41:18;2.03;;;1.10;;
36377;SDS011;22402;42.746;23.606;2023-08-01T09:43:47;1.73;;;1.37;;
36377;SDS011;22402;42.746;23.606;2023-08-01T09:46:14;1.53;;;1.43;;
36377;SDS011;22402;42.746;23.606;2023-08-01T09:48:40;2.63;;;1.40;;
36377;SDS011;22402;42.746;23.606;2023-08-01T09:51:07;2.00;;;1.20;;
36377;SDS011;22402;42.746;23.606;2023-08-01T09:53:55;1.50;;;1.40;;
36377;SDS011;22402;42.746;23.606;2023-08-01T09:56:22;1.57;;;1.47;;
36377;SDS011;22402;42.746;23.606;2023-08-01T09:58:50;2.03;;;1.10;;
36377;SDS011;22402;42.746;23.606;2023-08-01T10:01:18;1.23;;;1.10;;
36377;SDS011;22402;42.746;23.606;2023-08-01T10:03:45;2.60;;;1.10;;
36377;SDS011;22402;42.746;23.606;2023-08-01T10:06:19;6.23;;;0.93;;
36377;SDS011;22402;42.746;23.606;2023-08-01T10:08:49;1.00;;;1.00;;
36377;SDS011;22402;42.746;23.606;2023-08-01T10:11:21;1.00;;;1.00;;
36377;SDS011;22402;42.746;23.606;2023-08-01T10:13:47;0.98;;;0.80;;
36377;SDS011;22402;42.746;23.606;2023-08-01T10:16:13;1.20;;;1.10;;
36377;SDS011;22402;42.746;23.606;2023-08-01T10:18:40;1.50;;;1.20;;
36377;SDS011;22402;42.746;23.606;2023-08-01T10:21:06;1.00;;;1.00;;
36377;SDS011;22402;42.746;23.606;2023-08-01T10:23:36;2.00;;;1.20;;
36377;SDS011;22402;42.746;23.606;2023-08-01T10:26:03;1.10;;;1.02;;
36377;SDS011;22402;42.746;23.606;2023-08-01T10:28:34;2.05;;;0.98;;
36377;SDS011;22402;42.746;23.606;2023-08-01T10:31:14;1.40;;;0.80;;
36377;SDS011;22402;42.746;23.606;2023-08-01T10:33:41;1.50;;;1.00;;
36377;SDS011;22402;42.746;23.606;2023-08-01T10:36:12;3.58;;;1.02;;
36377;SDS011;22402;42.746;23.606;2023-08-01T10:39:01;1.13;;;0.90;;
36377;SDS011;22402;42.746;23.606;2023-08-01T10:41:27;1.50;;;1.00;;
36377;SDS011;22402;42.746;23.606;2023-08-01T10:44:13;1.00;;;1.00;;
36377;SDS011;22402;42.746;23.606;2023-08-01T10:49:11;3.25;;;1.38;;
36377;SDS011;22402;42.746;23.606;2023-08-01T10:51:37;1.15;;;1.08;;
36377;SDS011;22402;42.746;23.606;2023-08-01T10:54:02;1.77;;;1.15;;
36377;SDS011;22402;42.746;23.606;2023-08-01T10:56:27;1.88;;;1.10;;
36377;SDS011;22402;42.746;23.606;2023-08-01T10:58:54;1.30;;;1.20;;
36377;SDS011;22402;42.746;23.606;2023-08-01T11:01:19;3.05;;;1.20;;
36377;SDS011;22402;42.746;23.606;2023-08-01T11:03:45;1.10;;;1.00;;
36377;SDS011;22402;42.746;23.606;2023-08-01T11:06:10;0.80;;;0.80;;
36377;SDS011;22402;42.746;23.606;2023-08-01T11:08:36;1.77;;;1.50;;
36377;SDS011;22402;42.746;23.606;2023-08-01T11:11:03;0.80;;;0.80;;
36377;SDS011;22402;42.746;23.606;2023-08-01T11:13:35;1.10;;;1.00;;
36377;SDS011;22402;42.746;23.606;2023-08-01T11:16:04;2.75;;;0.95;;
36377;SDS011;22402;42.746;23.606;2023-08-01T11:18:40;1.17;;;1.05;;
36377;SDS011;22402;42.746;23.606;2023-08-01T11:21:08;2.20;;;1.40;;
36377;SDS011;22402;42.746;23.606;2023-08-01T11:23:34;1.80;;;1.30;;
36377;SDS011;22402;42.746;23.606;2023-08-01T11:26:01;1.13;;;1.02;;
36377;SDS011;22402;42.746;23.606;2023-08-01T11:28:33;1.17;;;1.08;;
36377;SDS011;22402;42.746;23.606;2023-08-01T11:30:59;0.90;;;0.90;;
36377;SDS011;22402;42.746;23.606;2023-08-01T11:33:24;2.65;;;1.23;;
36377;SDS011;22402;42.746;23.606;2023-08-01T11:35:53;1.70;;;1.00;;
36377;SDS011;22402;42.746;23.606;2023-08-01T11:38:23;1.10;;;1.00;;
36377;SDS011;22402;42.746;23.606;2023-08-01T11:40:50;1.27;;;1.23;;
36377;SDS011;22402;42.746;23.606;2023-08-01T11:43:17;1.25;;;1.20;;
36377;SDS011;22402;42.746;23.606;2023-08-01T11:45:49;1.20;;;1.10;;
36377;SDS011;22402;42.746;23.606;2023-08-01T11:48:23;3.05;;;1.10;;
36377;SDS011;22402;42.746;23.606;2023-08-01T11:50:49;1.30;;;1.20;;
36377;SDS011;22402;42.746;23.606;2023-08-01T11:53:23;2.00;;;1.55;;
36377;SDS011;22402;42.746;23.606;2023-08-01T11:55:49;1.58;;;1.48;;
36377;SDS011;22402;42.746;23.606;2023-08-01T11:58:34;1.55;;;0.90;;
36377;SDS011;22402;42.746;23.606;2023-08-01T12:01:01;2.03;;;1.30;;
36377;SDS011;22402;42.746;23.606;2023-08-01T12:03:46;0.90;;;0.90;;
36377;SDS011;22402;42.746;23.606;2023-08-01T12:06:12;2.40;;;1.27;;
36377;SDS011;22402;42.746;23.606;2023-08-01T12:08:39;1.27;;;1.17;;
36377;SDS011;22402;42.746;23.606;2023-08-01T12:11:16;1.70;;;1.60;;
36377;SDS011;22402;42.746;23.606;2023-08-01T12:13:43;1.17;;;1.13;;
36377;SDS011;22402;42.746;23.606;2023-08-01T12:16:09;1.90;;;1.25;;
36377;SDS011;22402;42.746;23.606;2023-08-01T12:18:34;3.08;;;1.60;;
36377;SDS011;22402;42.746;23.606;2023-08-01T12:21:02;1.10;;;1.00;;
36377;SDS011;22402;42.746;23.606;2023-08-01T12:23:30;1.98;;;1.48;;
36377;SDS011;22402;42.746;23.606;2023-08-01T12:25:56;1.65;;;1.13;;
36377;SDS011;22402;42.746;23.606;2023-08-01T12:28:21;1.73;;;1.40;;
36377;SDS011;22402;42.746;23.606;2023-08-01T12:30:47;1.60;;;1.17;;
36377;SDS011;22402;42.746;23.606;2023-08-01T12:33:13;2.08;;;1.30;;
36377;SDS011;22402;42.746;23.606;2023-08-01T12:38:14;1.10;;;1.10;;
36377;SDS011;22402;42.746;23.606;2023-08-01T12:40:39;1.55;;;1.13;;
36377;SDS011;22402;42.746;23.606;2023-08-01T12:43:05;2.15;;;1.20;;
36377;SDS011;22402;42.746;23.606;2023-08-01T12:45:30;1.92;;;1.80;;
36377;SDS011;22402;42.746;23.606;2023-08-01T12:47:56;1.38;;;1.27;;
36377;SDS011;22402;42.746;23.606;2023-08-01T12:50:21;2.28;;;1.30;;
36377;SDS011;22402;42.746;23.606;2023-08-01T12:52:46;2.25;;;1.50;;
36377;SDS011;22402;42.746;23.606;2023-08-01T12:55:12;1.60;;;1.40;;
36377;SDS011;22402;42.746;23.606;2023-08-01T12:57:37;1.65;;;1.40;;
36377;SDS011;22402;42.746;23.606;2023-08-01T13:00:03;1.75;;;1.65;;
36377;SDS011;22402;42.746;23.606;2023-08-01T13:02:29;1.70;;;1.60;;
36377;SDS011;22402;42.746;23.606;2023-08-01T13:04:54;4.60;;;1.17;;
36377;SDS011;22402;42.746;23.606;2023-08-01T13:07:19;1.30;;;1.20;;
36377;SDS011;22402;42.746;23.606;2023-08-01T13:09:45;1.40;;;1.30;;
36377;SDS011;22402;42.746;23.606;2023-08-01T13:12:10;2.22;;;1.35;;
36377;SDS011;22402;42.746;23.606;2023-08-01T13:14:36;3.28;;;1.38;;
36377;SDS011;22402;42.746;23.606;2023-08-01T13:17:02;1.58;;;1.40;;
36377;SDS011;22402;42.746;23.606;2023-08-01T13:19:27;4.63;;;1.27;;
36377;SDS011;22402;42.746;23.606;2023-08-01T13:21:53;1.40;;;1.30;;
36377;SDS011;22402;42.746;23.606;2023-08-01T13:24:18;1.70;;;1.30;;
36377;SDS011;22402;42.746;23.606;2023-08-01T13:26:44;1.30;;;1.20;;
36377;SDS011;22402;42.746;23.606;2023-08-01T13:29:10;1.20;;;1.10;;
36377;SDS011;22402;42.746;23.606;2023-08-01T13:31:35;2.00;;;1.63;;
36377;SDS011;22402;42.746;23.606;2023-08-01T13:34:00;4.20;;;1.20;;
36377;SDS011;22402;42.746;23.606;2023-08-01T13:36:26;1.38;;;1.27;;
36377;SDS011;22402;42.746;23.606;2023-08-01T13:38:51;1.92;;;1.30;;
36377;SDS011;22402;42.746;23.606;2023-08-01T13:41:17;1.88;;;1.35;;
36377;SDS011;22402;42.746;23.606;2023-08-01T13:43:42;1.42;;;1.02;;
36377;SDS011;22402;42.746;23.606;2023-08-01T13:46:17;1.35;;;1.20;;
36377;SDS011;22402;42.746;23.606;2023-08-01T13:48:44;1.20;;;1.20;;
36377;SDS011;22402;42.746;23.606;2023-08-01T13:51:10;2.55;;;1.30;;
36377;SDS011;22402;42.746;23.606;2023-08-01T13:53:37;1.45;;;1.23;;
36377;SDS011;22402;42.746;23.606;2023-08-01T13:56:07;1.73;;;1.60;;
36377;SDS011;22402;42.746;23.606;2023-08-01T13:58:33;1.75;;;1.50;;
36377;SDS011;22402;42.746;23.606;2023-08-01T14:01:02;3.90;;;1.60;;
36377;SDS011;22402;42.746;23.606;2023-08-01T14:03:29;4.97;;;1.50;;
36377;SDS011;22402;42.746;23.606;2023-08-01T14:05:55;2.15;;;1.83;;
36377;SDS011;22402;42.746;23.606;2023-08-01T14:08:21;2.15;;;1.63;;
36377;SDS011;22402;42.746;23.606;2023-08-01T14:10:47;1.45;;;1.15;;
36377;SDS011;22402;42.746;23.606;2023-08-01T14:13:12;1.30;;;1.20;;
36377;SDS011;22402;42.746;23.606;2023-08-01T14:15:37;3.10;;;1.77;;
36377;SDS011;22402;42.746;23.606;2023-08-01T14:18:03;1.77;;;1.50;;
36377;SDS011;22402;42.746;23.606;2023-08-01T14:20:28;2.70;;;1.90;;
36377;SDS011;22402;42.746;23.606;2023-08-01T14:22:54;2.03;;;1.57;;
36377;SDS011;22402;42.746;23.606;2023-08-01T14:25:19;1.80;;;1.53;;
36377;SDS011;22402;42.746;23.606;2023-08-01T14:27:45;1.70;;;1.50;;
36377;SDS011;22402;42.746;23.606;2023-08-01T14:30:10;2.37;;;1.40;;
36377;SDS011;22402;42.746;23.606;2023-08-01T14:32:37;2.00;;;1.80;;
36377;SDS011;22402;42.746;23.606;2023-08-01T14:35:03;4.00;;;1.43;;